createdAt,value
2023-03-17T00:05:17.647Z,15.27
2023-03-17T00:10:40.287Z,24.30
2023-03-17T00:16:05.126Z,22.65
2023-03-17T00:26:58.111Z,14.68
2023-03-17T00:32:28.929Z,15.25
2023-03-17T00:37:53.696Z,22.80
2023-03-17T00:43:21.840Z,18.13
2023-03-17T00:48:46.781Z,32.72
2023-03-17T00:54:15.606Z,42.22
2023-03-17T00:59:44.504Z,45.33
2023-03-17T01:05:14.550Z,39.30
2023-03-17T01:10:43.770Z,38.30
2023-03-17T01:16:08.139Z,25.77
2023-03-17T01:21:36.149Z,44.40
2023-03-17T01:27:01.704Z,28.67
2023-03-17T01:32:29.957Z,29.35
2023-03-17T01:37:59.810Z,41.78
2023-03-17T01:43:29.514Z,31.15
2023-03-17T01:49:05.929Z,40.35
2023-03-17T01:54:40.951Z,39.47
2023-03-17T02:00:10.497Z,39.65
2023-03-17T02:05:37.046Z,34.10
2023-03-17T02:11:08.827Z,34.25
2023-03-17T02:16:32.579Z,28.33
2023-03-17T02:22:02.789Z,28.92
2023-03-17T02:27:31.192Z,32.85
2023-03-17T02:32:59.925Z,36.05
2023-03-17T02:38:29.357Z,41.30
2023-03-17T02:44:00.134Z,32.13
2023-03-17T02:49:24.125Z,25.05
2023-03-17T02:54:48.567Z,21.73
2023-03-17T03:00:17.595Z,25.52
2023-03-17T03:05:45.914Z,24.93
2023-03-17T03:11:12.151Z,20.48
2023-03-17T03:16:41.274Z,23.13
2023-03-17T03:22:10.033Z,23.93
2023-03-17T03:27:40.988Z,21.30
2023-03-17T03:33:09.468Z,18.10
2023-03-17T03:38:38.200Z,21.13
2023-03-17T03:44:08.276Z,21.17
2023-03-17T03:49:36.984Z,20.42
2023-03-17T03:55:05.146Z,24.40
2023-03-17T04:00:35.441Z,31.65
2023-03-17T04:06:04.498Z,31.90
2023-03-17T04:17:05.623Z,33.35
2023-03-17T04:22:29.005Z,26.48
2023-03-17T04:27:57.178Z,28.52
2023-03-17T04:33:21.497Z,22.55
2023-03-17T04:38:44.439Z,16.25
2023-03-17T04:44:07.158Z,15.23
2023-03-17T04:49:31.393Z,23.52
2023-03-17T04:54:54.137Z,21.08
2023-03-17T05:00:17.125Z,21.13
2023-03-17T05:05:40.900Z,24.88
2023-03-17T05:11:02.647Z,26.98
2023-03-17T05:16:31.313Z,26.67
2023-03-17T05:22:01.564Z,26.98
2023-03-17T05:27:30.245Z,27.88
2023-03-17T05:32:59.140Z,26.90
2023-03-17T05:38:28.373Z,26.13
2023-03-17T05:43:57.087Z,37.25
2023-03-17T05:49:22.035Z,33.55
2023-03-17T05:54:48.913Z,27.13
2023-03-17T06:00:13.311Z,31.52
2023-03-17T06:05:37.630Z,38.55
2023-03-17T06:11:07.808Z,31.57
2023-03-17T06:16:33.075Z,27.70
2023-03-17T06:22:02.211Z,30.10
2023-03-17T06:27:32.574Z,26.75
2023-03-17T06:33:01.713Z,23.63
2023-03-17T06:38:30.181Z,30.03
2023-03-17T06:44:00.507Z,34.60
2023-03-17T06:49:23.883Z,33.15
2023-03-17T06:54:47.016Z,35.40
2023-03-17T07:00:16.039Z,31.77
2023-03-17T07:05:44.944Z,32.25
2023-03-17T07:11:13.169Z,35.22
2023-03-17T07:16:38.193Z,26.75
2023-03-17T07:22:05.142Z,31.85
2023-03-17T07:27:28.548Z,35.47
2023-03-17T07:32:58.329Z,32.58
2023-03-17T07:38:27.544Z,36.35
2023-03-17T07:43:50.611Z,37.47
2023-03-17T07:49:30.762Z,25.98
2023-03-17T07:55:12.515Z,26.70
2023-03-17T08:00:35.869Z,31.45
2023-03-17T08:11:32.408Z,26.33
2023-03-17T08:16:54.654Z,28.90
2023-03-17T08:22:22.719Z,34.80
2023-03-17T08:27:49.014Z,33.30
2023-03-17T08:33:17.528Z,22.05
2023-03-17T08:38:46.865Z,29.70
2023-03-17T08:44:16.779Z,25.92
2023-03-17T08:49:45.598Z,18.65
2023-03-17T08:55:11.815Z,25.67
2023-03-17T09:00:41.770Z,18.92
2023-03-17T09:06:11.679Z,17.17
2023-03-17T09:11:40.226Z,17.35
2023-03-17T09:17:05.995Z,20.23
2023-03-17T09:22:28.816Z,15.43
2023-03-17T09:27:57.257Z,19.58
2023-03-17T09:33:23.936Z,19.55
2023-03-17T09:38:52.982Z,17.35
2023-03-17T09:44:19.542Z,22.40
2023-03-17T09:49:48.338Z,20.23
2023-03-17T09:55:18.217Z,21.60
2023-03-17T10:00:47.318Z,19.75
2023-03-17T10:06:34.685Z,17.93
2023-03-17T10:12:05.894Z,15.55
2023-03-17T10:17:31.894Z,17.30
2023-03-17T10:22:59.071Z,18.42
2023-03-17T10:28:28.852Z,16.65
2023-03-17T10:33:53.739Z,15.10
2023-03-17T10:39:18.739Z,15.13
2023-03-17T10:44:45.074Z,20.05
2023-03-17T10:50:21.521Z,24.20
2023-03-17T10:55:52.464Z,15.18
2023-03-17T11:01:20.202Z,15.52
2023-03-17T11:06:44.263Z,13.85
2023-03-17T11:12:22.840Z,20.20
2023-03-17T11:17:54.381Z,16.33
2023-03-17T11:23:28.670Z,15.23
2023-03-17T11:29:04.026Z,14.20
2023-03-17T11:34:40.409Z,13.48
2023-03-17T11:40:16.311Z,12.18
2023-03-17T11:45:50.765Z,14.38
2023-03-17T11:51:17.526Z,12.65
2023-03-17T11:56:42.871Z,14.20
2023-03-17T12:02:19.468Z,12.82
2023-03-17T12:07:45.335Z,12.13
2023-03-17T12:13:10.549Z,15.70
2023-03-17T12:18:36.039Z,14.43
2023-03-17T12:24:03.278Z,16.30
2023-03-17T12:29:36.420Z,15.40
2023-03-17T12:35:19.873Z,14.07
2023-03-17T12:40:53.465Z,18.15
2023-03-17T12:46:28.423Z,19.45
2023-03-17T12:52:02.696Z,16.88
2023-03-17T12:57:28.749Z,14.90
2023-03-17T13:03:09.678Z,15.60
2023-03-17T13:08:41.279Z,16.27
2023-03-17T13:14:17.368Z,20.40
2023-03-17T13:19:48.201Z,22.67
2023-03-17T13:25:30.841Z,16.92
2023-03-17T13:31:15.415Z,17.45
2023-03-17T13:36:42.916Z,15.63
2023-03-17T13:42:20.583Z,19.45
2023-03-17T13:47:44.555Z,22.45
2023-03-17T13:53:11.752Z,19.08
2023-03-17T13:58:50.080Z,22.67
2023-03-17T14:04:17.885Z,22.27
2023-03-17T14:09:41.595Z,16.00
2023-03-17T14:15:08.412Z,20.25
2023-03-17T14:20:31.799Z,18.55
2023-03-17T14:26:00.829Z,16.75
2023-03-17T14:31:30.895Z,18.67
2023-03-17T14:37:02.196Z,18.95
2023-03-17T14:42:27.401Z,23.08
2023-03-17T14:47:58.080Z,20.80
2023-03-17T14:53:24.054Z,16.70
2023-03-17T14:58:47.927Z,17.15
2023-03-17T15:04:14.226Z,14.75
2023-03-17T15:09:41.399Z,21.05
2023-03-17T15:15:05.770Z,12.02
2023-03-17T15:20:35.377Z,11.25
2023-03-17T15:26:09.421Z,9.98
2023-03-17T15:31:38.109Z,12.32
2023-03-17T15:37:04.170Z,12.25
2023-03-17T15:42:28.001Z,20.02
2023-03-17T15:47:57.097Z,10.68
2023-03-17T15:53:26.455Z,11.88
2023-03-17T15:58:54.948Z,16.90
2023-03-17T16:04:23.426Z,7.35
2023-03-17T16:09:48.307Z,12.15
2023-03-17T16:15:22.895Z,9.73
2023-03-17T16:20:47.318Z,12.20
2023-03-17T16:26:17.379Z,18.70
2023-03-17T16:31:43.034Z,23.38
2023-03-17T16:37:09.549Z,27.45
2023-03-17T16:42:41.519Z,20.05
2023-03-17T16:48:13.131Z,19.98
2023-03-17T16:53:42.215Z,27.75
2023-03-17T16:59:15.542Z,20.95
2023-03-17T17:04:41.216Z,27.27
2023-03-17T17:10:07.472Z,28.55
2023-03-17T17:15:38.039Z,24.30
2023-03-17T17:21:07.238Z,49.47
2023-03-17T17:26:30.196Z,27.00
2023-03-17T17:32:00.574Z,34.27
2023-03-17T17:37:29.181Z,36.53
2023-03-17T17:42:58.858Z,26.35
2023-03-17T17:48:29.011Z,36.40
2023-03-17T17:53:51.687Z,34.60
2023-03-17T17:59:14.251Z,45.65
2023-03-17T18:04:38.889Z,30.75
2023-03-17T18:10:02.293Z,54.28
2023-03-17T18:15:26.606Z,40.90
2023-03-17T18:20:51.332Z,44.38
2023-03-17T18:26:15.248Z,60.85
2023-03-17T18:31:40.720Z,46.92
2023-03-17T18:37:07.850Z,62.58
2023-03-17T18:42:31.051Z,39.15
2023-03-17T18:47:54.068Z,44.17
2023-03-17T18:53:18.500Z,45.92
2023-03-17T18:58:41.759Z,44.67
2023-03-17T19:04:05.775Z,40.63
2023-03-17T19:09:30.707Z,43.55
2023-03-17T19:14:53.873Z,40.78
2023-03-17T19:20:17.179Z,34.08
2023-03-17T19:25:41.834Z,37.83
2023-03-17T19:31:05.084Z,39.38
2023-03-17T19:36:28.321Z,40.25
2023-03-17T19:41:55.260Z,37.83
2023-03-17T19:47:18.104Z,30.35
2023-03-17T19:52:40.795Z,45.10
2023-03-17T19:58:06.411Z,31.20
2023-03-17T20:03:28.979Z,31.33
2023-03-17T20:08:52.688Z,28.33
2023-03-17T20:14:17.297Z,38.67
2023-03-17T20:19:46.232Z,26.15
2023-03-17T20:25:10.699Z,22.27
2023-03-17T20:30:37.272Z,20.58
2023-03-17T20:36:05.634Z,22.88
2023-03-17T20:41:34.001Z,21.03
2023-03-17T20:46:59.149Z,22.30
2023-03-17T20:52:26.257Z,21.55
2023-03-17T20:57:58.767Z,20.90
2023-03-17T21:03:22.573Z,21.52
2023-03-17T21:08:51.231Z,26.13
2023-03-17T21:14:14.198Z,25.67
2023-03-17T21:19:44.745Z,28.50
2023-03-17T21:25:13.449Z,35.92
2023-03-17T21:30:43.638Z,25.58
2023-03-17T21:36:08.755Z,23.88
2023-03-17T21:41:33.308Z,20.85
2023-03-17T21:46:58.445Z,20.73
2023-03-17T21:52:28.747Z,29.05
2023-03-17T22:03:25.642Z,18.45
2023-03-17T22:08:52.218Z,24.35
2023-03-17T22:14:20.702Z,21.80
2023-03-17T22:19:49.516Z,25.77
2023-03-17T22:25:21.673Z,23.75
2023-03-17T22:30:51.135Z,25.40
2023-03-17T22:36:19.301Z,25.42
2023-03-17T22:41:49.760Z,25.00
2023-03-17T22:47:13.028Z,24.77
2023-03-17T22:52:37.188Z,23.95
2023-03-17T22:58:07.571Z,24.75
2023-03-17T23:03:37.145Z,15.85
2023-03-17T23:09:06.382Z,20.48
2023-03-17T23:14:37.385Z,19.10
2023-03-17T23:20:00.706Z,20.40
2023-03-17T23:25:29.351Z,30.60
2023-03-17T23:30:59.521Z,22.27
2023-03-17T23:36:24.798Z,14.43
2023-03-17T23:41:52.995Z,13.65
2023-03-17T23:47:22.887Z,16.15
2023-03-17T23:52:47.186Z,21.05
2023-03-17T23:58:10.113Z,13.18
